Terminal Aerodrome Forecast
Issued by NWS Sioux Falls, SD

Home | Current Version | Previous Version | Text Only | Print | Product List | Glossary On
Versions: 1 2 3 4 5 6 7 8 9 10 11 12
000
FTUS43 KFSD 160520
TAFHON
TAF
KHON 160520Z 1606/1706 24004KT P6SM SKC
     FM161300 19008KT P6SM SKC
     FM162100 22010KT P6SM FEW250
     FM170000 21006KT P6SM SKC=

USA.gov is the U.S. government's official web portal to all federal, state and local government web resources and services.